Lincoln, RI

5:38 AM EDT on August 28, 2016 (GMT -0400)
North Central State

Weather History for KSFZ - June, 2013

Change the Weather History Date:

Saturday, June 8, 2013

  Actual Average Record
Temperature  
Mean Temperature 64 °F -  
Max Temperature 75 °F 69 °F 89 °F (2008)
Min Temperature 53 °F 51 °F 42 °F (2002)
Degree Days  
Heating Degree Days 1    
Growing Degree Days 14 (Base 50)    
Moisture  
Dew Point 55 °F    
Average Humidity 78    
Maximum Humidity 94    
Minimum Humidity 57    
Precipitation  
Precipitation 1.16 in - - ()
Sea Level Pressure  
Sea Level Pressure 29.82 in    
Wind  
Wind Speed 10 mph (NW)    
Max Wind Speed 17 mph    
Max Gust Speed 22 mph    
Visibility 8 miles    
Events Thunderstorm    
Averages and records for this station are not official NWS values.
T = Trace of Precipitation, MM = Missing Value Source: NWS Daily Summary

Daily Weather History Graph

Daily Weather History Graph

Search for Another Location

Airport or City:

Trip Planner

Search our weather history database for the weather conditions in past years. The results will help you decide how hot, cold, wet, or windy it might be!

Date:

Astronomy

Jun. 08, 2013 Rise Set
Actual Time 5:10 AM EDT 8:19 PM EDT
Civil Twilight 4:36 AM EDT 8:53 PM EDT
Nautical Twilight 3:53 AM EDT 9:37 PM EDT
Astronomical Twilight 3:00 AM EDT 10:29 PM EDT
Moon 5:16 AM EDT (6/8) 8:18 PM EDT (6/8)
Length of Visible Light 16h 17m
Length of Day
15h 08m
New Moon, 0% of the Moon is Illuminated
Jun 8
New Moon
Jun 16
First Quarter
Jun 23
Full
Jun 30
Last Quarter
Jul 8
New

Hourly Weather History & Observations

Time (EDT) Temp. Dew Point Humidity Pressure Visibility Wind Dir Wind Speed Gust Speed Precip Events Conditions
12:15 AM 53.6 °F 50.0 °F 88% 29.79 in 8.0 mi NE 11.5 mph - N/A   Overcast
12:35 AM 53.6 °F 51.8 °F 94% 29.77 in 8.0 mi NNE 11.5 mph 18.4 mph N/A   Overcast
12:55 AM 53.6 °F 51.8 °F 94% 29.76 in 3.0 mi NE 10.4 mph - 0.48 in   Overcast
1:15 AM 53.6 °F 51.8 °F 94% 29.76 in 5.0 mi NNE 11.5 mph 17.3 mph 0.07 in   Overcast
1:35 AM 53.6 °F 51.8 °F 94% 29.77 in 5.0 mi NNW 9.2 mph - 0.15 in   Overcast
1:55 AM 53.6 °F 51.8 °F 94% 29.75 in 7.0 mi NNE 12.7 mph - 0.41 in   Overcast
2:15 AM 53.6 °F 51.8 °F 94% 29.71 in 8.0 mi NNE 13.8 mph - 0.05 in Thunderstorm Overcast
2:35 AM 53.6 °F 50.0 °F 88% 29.71 in 5.0 mi NE 13.8 mph - 0.07 in   Overcast
2:55 AM 53.6 °F 51.8 °F 94% 29.70 in 9.0 mi NNE 15.0 mph - 0.12 in   Overcast
3:15 AM 53.6 °F 51.8 °F 94% 29.69 in 5.0 mi NNE 12.7 mph - 0.05 in   Overcast
3:35 AM 53.6 °F 51.8 °F 94% 29.68 in 5.0 mi NNE 11.5 mph - 0.06 in   Overcast
3:55 AM 53.6 °F 51.8 °F 94% 29.67 in 7.0 mi NNE 13.8 mph - 0.07 in   Overcast
4:15 AM 53.6 °F 50.0 °F 88% 29.65 in 5.0 mi NNE 12.7 mph - N/A   Overcast
4:35 AM 53.6 °F 50.0 °F 88% 29.64 in 5.0 mi NNE 13.8 mph - 0.01 in   Overcast
4:55 AM 53.6 °F 50.0 °F 88% 29.63 in 3.0 mi North 13.8 mph - 0.01 in   Overcast
5:15 AM 53.6 °F 50.0 °F 88% 29.62 in 4.0 mi NNE 13.8 mph 18.4 mph 0.02 in   Overcast
5:35 AM 53.6 °F 50.0 °F 88% 29.62 in 2.0 mi North 13.8 mph 19.6 mph 0.04 in   Overcast
5:55 AM 53.6 °F 50.0 °F 88% 29.61 in 2.5 mi North 13.8 mph 21.9 mph 0.06 in   Overcast
6:15 AM 53.6 °F 50.0 °F 88% 29.61 in 2.0 mi North 17.3 mph - N/A   Overcast
6:35 AM 53.6 °F 50.0 °F 88% 29.62 in 2.5 mi North 12.7 mph 21.9 mph N/A   Overcast
6:55 AM 53.6 °F 50.0 °F 88% 29.63 in 2.5 mi North 10.4 mph 19.6 mph N/A   Overcast
7:15 AM 53.6 °F 50.0 °F 88% 29.63 in 2.5 mi North 12.7 mph - 0.01 in   Overcast
7:35 AM 53.6 °F 51.8 °F 94% 29.64 in 2.0 mi North 10.4 mph - 0.01 in   Overcast
7:55 AM 53.6 °F 51.8 °F 94% 29.65 in 2.0 mi NNW 11.5 mph 19.6 mph 0.01 in   Overcast
8:15 AM 55.4 °F 51.8 °F 88% 29.68 in 2.5 mi NNW 12.7 mph 17.3 mph N/A   Overcast
8:35 AM 55.4 °F 51.8 °F 88% 29.71 in 1.8 mi NW 10.4 mph 16.1 mph N/A   Overcast
8:55 AM 55.4 °F 51.8 °F 88% 29.73 in 1.8 mi WNW 10.4 mph 16.1 mph N/A   Overcast
9:15 AM 55.4 °F 53.6 °F 94% 29.74 in 2.5 mi NW 13.8 mph 20.7 mph N/A   Overcast
9:55 AM 59.0 °F 53.6 °F 82% 29.75 in 10.0 mi NW 9.2 mph 17.3 mph N/A   Overcast
10:15 AM 59.0 °F 53.6 °F 82% 29.78 in 10.0 mi WNW 10.4 mph 18.4 mph N/A   Overcast
10:35 AM 60.8 °F 55.4 °F 82% 29.79 in 10.0 mi West 10.4 mph 17.3 mph N/A   Overcast
10:55 AM 60.8 °F 55.4 °F 82% 29.81 in 10.0 mi West 10.4 mph - N/A   Overcast
11:15 AM 62.6 °F 55.4 °F 77% 29.82 in 10.0 mi West 12.7 mph - N/A   Overcast
11:35 AM 62.6 °F 55.4 °F 77% 29.83 in 10.0 mi West 10.4 mph - N/A   Overcast
11:55 AM 64.4 °F 55.4 °F 73% 29.84 in 10.0 mi West 11.5 mph 18.4 mph N/A   Overcast
12:15 PM 66.2 °F 57.2 °F 73% 29.85 in 10.0 mi West 8.1 mph 16.1 mph N/A   Overcast
12:35 PM 68.0 °F 57.2 °F 68% 29.86 in 10.0 mi West 10.4 mph 17.3 mph N/A   Scattered Clouds
12:55 PM 69.8 °F 57.2 °F 64% 29.86 in 10.0 mi West 11.5 mph 17.3 mph N/A   Partly Cloudy
1:15 PM 71.6 °F 59.0 °F 64% 29.86 in 10.0 mi West 10.4 mph 20.7 mph N/A   Partly Cloudy
1:35 PM 73.4 °F 60.8 °F 65% 29.87 in 10.0 mi WSW 9.2 mph 17.3 mph N/A   Partly Cloudy
1:55 PM 73.4 °F 60.8 °F 65% 29.87 in 10.0 mi WSW 8.1 mph - N/A   Partly Cloudy
2:15 PM 73.4 °F 60.8 °F 65% 29.87 in 10.0 mi WSW 6.9 mph - N/A   Partly Cloudy
2:35 PM 75.2 °F 60.8 °F 61% 29.87 in 10.0 mi SW 8.1 mph - N/A   Partly Cloudy
2:55 PM 73.4 °F 60.8 °F 65% 29.88 in 10.0 mi WSW 6.9 mph - N/A   Mostly Cloudy
3:15 PM 73.4 °F 60.8 °F 65% 29.88 in 10.0 mi West 9.2 mph - N/A   Mostly Cloudy
3:35 PM 75.2 °F 60.8 °F 61% 29.88 in 10.0 mi West 11.5 mph 17.3 mph N/A   Scattered Clouds
3:56 PM 75.2 °F 60.8 °F 61% 29.89 in 10.0 mi WSW 9.2 mph 16.1 mph N/A   Scattered Clouds
4:15 PM 75.2 °F 60.8 °F 61% 29.90 in 10.0 mi WSW 5.8 mph - N/A   Partly Cloudy
4:35 PM 75.2 °F 60.8 °F 61% 29.90 in 10.0 mi WSW 6.9 mph - N/A   Partly Cloudy
4:55 PM 75.2 °F 60.8 °F 61% 29.90 in 10.0 mi WSW 6.9 mph - N/A   Clear
5:15 PM 75.2 °F 59.0 °F 57% 29.91 in 10.0 mi West 8.1 mph 16.1 mph N/A   Partly Cloudy
5:35 PM 73.4 °F 59.0 °F 61% 29.92 in 10.0 mi West 8.1 mph - N/A   Partly Cloudy
5:55 PM 73.4 °F 59.0 °F 61% 29.94 in 10.0 mi West 6.9 mph - N/A   Scattered Clouds
6:15 PM 73.4 °F 57.2 °F 57% 29.94 in 10.0 mi West 8.1 mph 16.1 mph N/A   Partly Cloudy
6:35 PM 73.4 °F 57.2 °F 57% 29.94 in 10.0 mi West 9.2 mph - N/A   Clear
6:55 PM 69.8 °F 57.2 °F 64% 29.96 in 10.0 mi West 6.9 mph - N/A   Clear
7:15 PM 69.8 °F 57.2 °F 64% 29.96 in 10.0 mi West 6.9 mph - N/A   Clear
7:35 PM 69.8 °F 57.2 °F 64% 29.96 in 10.0 mi West 5.8 mph - N/A   Clear
7:55 PM 69.8 °F 57.2 °F 64% 29.97 in 10.0 mi West 3.5 mph - N/A   Clear
8:15 PM 66.2 °F 57.2 °F 73% 29.97 in 10.0 mi Calm Calm - N/A   Clear
8:35 PM 62.6 °F 57.2 °F 82% 29.98 in 10.0 mi Calm Calm - N/A   Partly Cloudy
8:55 PM 64.4 °F 57.2 °F 77% 29.99 in 10.0 mi WNW 6.9 mph - N/A   Mostly Cloudy
9:15 PM 64.4 °F 57.2 °F 77% 29.99 in 10.0 mi WNW 4.6 mph - N/A   Mostly Cloudy
9:35 PM 62.6 °F 57.2 °F 82% 30.00 in 10.0 mi WNW 4.6 mph - N/A   Clear
9:55 PM 62.6 °F 57.2 °F 82% 30.00 in 10.0 mi Calm Calm - N/A   Partly Cloudy
10:15 PM 60.8 °F 57.2 °F 88% 30.01 in 10.0 mi Calm Calm - N/A   Scattered Clouds
10:35 PM 62.6 °F 57.2 °F 82% 30.02 in 10.0 mi WSW 3.5 mph - N/A   Overcast
10:55 PM 62.6 °F 57.2 °F 82% 30.03 in 10.0 mi West 3.5 mph - N/A   Overcast
11:15 PM 62.6 °F 57.2 °F 82% 30.03 in 10.0 mi WSW 3.5 mph - N/A   Mostly Cloudy
11:35 PM 62.6 °F 55.4 °F 77% 30.04 in 10.0 mi WSW 3.5 mph - N/A   Partly Cloudy
11:55 PM 60.8 °F 55.4 °F 82% 30.04 in 10.0 mi WNW 4.6 mph - N/A   Clear